map of AWZ home
AWZ - Airport
Location
City:  Ahwaz, Khuzestan, Iran
ICAO:OIAW
IATA:AWZ

Details
Type:Airport (Aerodrome, Airfield)
Use:Public/Civil
Latitude:3120'15"N (31.337431)
Longitude:4845'43"E (48.761950)
Datum:WGS 1984
Elevation:66 ft (20 m)
Variation:3.95E (WMM2015 magnetic declination)
0.06 annual change
Runways:1
Longest:11149 × 148 ft (3398 × 45 m), paved

Time
Time Zone:UTC+3:30 (DST+4:30)
Local Time:

Weather
METAR:OIAW 191430Z 01004KT CAVOK 31/11 Q1011
TAF:OIAW 191100Z 1912/2018 29003MPS 7000 FEW040 SCT100
TEMPO 1912/1918 29008MPS FEW035CB SCT040 BKN100 PROB40 1914/1918 TS SCT030CB SCT035 BKN090 PROB40 2001/2005 4000 HZ
TEMPO 2010/2015 FEW035CB SCT040 SCT100

Related Locations
Nearby:
Farthest:GMR: 11821 mi / 19024 km
Mangareva [Totegegie], Gambier Islands, PF

Find:

   beyond  
but within

Other Information
Maps:
NOTAMs:
Links:
Sources:

  
  • flag of Iran
  

Sectional Chart

Flight Planning
at skyvector.com

Satellite Image

Google Maps Satellite view

 

Copyright © 2004-2018 Karl L. Swartz. All rights reserved.
The Great Circle Mapper name and logo are trademarks of the Great Circle Mapper.
All other trademarks mentioned herein belong to their respective owners.
Please see credits for attibutions and further copyright information.

  Follow gcmap on Facebook Follow gcmap on Twitter Follow gcmap on Google+ GCmap on LinkedIn

hCard Microformat

Geo Microformat